Time,TemperatureF,DewpointF,PressureIn,WindDirection,WindDirectionDegrees,WindSpeedMPH,WindSpeedGustMPH,Humidity,HourlyPrecipIn,Conditions,Clouds,dailyrainin,SoftwareType,DateUTC
2013-02-26 07:30:00,35.9,-1.2,29.90,West,270,0.0,0.0,20,0.00,,---,0.00,VWS V14.00,2013-02-26 13:30:00,
2013-02-26 08:21:00,35.9,-1.2,29.90,West,270,0.0,0.0,20,0.00,,---,0.00,VWS V14.00,2013-02-26 14:21:00,
2013-02-26 08:26:00,41.1,-0.4,29.89,SW,233,0.0,0.0,17,0.00,,---,0.00,VWS V14.00,2013-02-26 14:26:00,
2013-02-26 08:31:00,41.8,1.4,29.89,SW,233,0.0,0.0,18,0.00,,---,0.00,VWS V14.00,2013-02-26 14:31:00,
2013-02-26 08:32:00,41.9,1.5,29.89,SW,233,0.0,0.0,18,0.00,,---,0.00,VWS V14.00,2013-02-26 14:32:00,
2013-02-26 08:36:00,42.6,0.9,29.89,SW,233,0.0,0.0,17,0.00,,---,0.00,VWS V14.00,2013-02-26 14:36:00,
2013-02-26 08:37:00,42.6,0.9,29.89,SW,233,0.0,0.0,17,0.00,,---,0.00,VWS V14.00,2013-02-26 14:37:00,
2013-02-26 08:41:00,43.3,1.4,29.89,SW,233,0.0,0.0,17,0.00,,---,0.00,VWS V14.00,2013-02-26 14:41:00,
2013-02-26 08:42:00,43.3,1.4,29.89,SW,233,0.0,0.0,17,0.00,,---,0.00,VWS V14.00,2013-02-26 14:42:00,
2013-02-26 08:46:00,43.9,1.9,29.87,SW,233,0.0,0.0,17,0.00,,---,0.00,VWS V14.00,2013-02-26 14:46:00,
2013-02-26 08:47:00,43.9,0.6,29.87,SW,233,0.0,0.0,16,0.00,,---,0.00,VWS V14.00,2013-02-26 14:47:00,
2013-02-26 08:51:00,44.5,1.1,29.87,SW,233,0.0,0.0,16,0.00,,---,0.00,VWS V14.00,2013-02-26 14:51:00,
2013-02-26 08:52:00,44.5,1.1,29.87,SW,233,0.0,0.0,16,0.00,,---,0.00,VWS V14.00,2013-02-26 14:52:00,
2013-02-26 08:57:00,45.1,0.2,29.87,SW,233,0.0,0.0,15,0.00,,---,0.00,VWS V14.00,2013-02-26 14:57:00,
2013-02-26 08:58:00,45.2,0.3,29.87,SW,233,0.0,0.0,15,0.00,,---,0.00,VWS V14.00,2013-02-26 14:58:00,
2013-02-26 09:02:00,46.1,1.0,29.86,SW,233,0.0,0.0,15,0.00,,---,0.00,VWS V14.00,2013-02-26 15:02:00,
2013-02-26 09:03:00,46.5,1.4,29.86,SW,233,0.0,0.0,15,0.00,,---,0.00,VWS V14.00,2013-02-26 15:03:00,
2013-02-26 09:07:00,46.4,-0.2,29.86,SW,233,0.0,0.0,14,0.00,,---,0.00,VWS V14.00,2013-02-26 15:07:00,
2013-02-26 09:08:00,46.5,-0.1,29.86,SW,233,0.0,0.0,14,0.00,,---,0.00,VWS V14.00,2013-02-26 15:08:00,
2013-02-26 09:12:00,46.8,0.1,29.86,SW,233,0.0,0.0,14,0.00,,---,0.00,VWS V14.00,2013-02-26 15:12:00,
2013-02-26 09:13:00,47.0,0.3,29.86,SW,233,0.0,0.0,14,0.00,,---,0.00,VWS V14.00,2013-02-26 15:13:00,
2013-02-26 09:17:00,47.1,0.4,29.86,SW,233,0.0,0.0,14,0.00,,---,0.00,VWS V14.00,2013-02-26 15:17:00,
2013-02-26 09:18:00,47.3,0.5,29.86,SW,233,0.0,0.0,14,0.00,,---,0.00,VWS V14.00,2013-02-26 15:18:00,
2013-02-26 09:22:00,47.9,1.0,29.86,SW,233,0.0,0.0,14,0.00,,---,0.00,VWS V14.00,2013-02-26 15:22:00,
2013-02-26 09:23:00,48.0,1.1,29.86,SW,233,0.0,0.0,14,0.00,,---,0.00,VWS V14.00,2013-02-26 15:23:00,
2013-02-26 09:24:00,48.2,1.2,29.86,SW,233,0.0,0.0,14,0.00,,---,0.00,VWS V14.00,2013-02-26 15:24:00,
2013-02-26 09:27:00,48.6,1.6,29.86,SW,233,0.0,0.0,14,0.00,,---,0.00,VWS V14.00,2013-02-26 15:27:00,
2013-02-26 09:28:00,48.8,1.7,29.86,WSW,239,0.0,0.0,14,0.00,,---,0.00,VWS V14.00,2013-02-26 15:28:00,
2013-02-26 09:29:00,48.9,1.8,29.85,WSW,239,0.0,0.0,14,0.00,,---,0.00,VWS V14.00,2013-02-26 15:29:00,
2013-02-26 09:32:00,49.8,0.9,29.85,WSW,239,0.0,0.0,13,0.00,,---,0.00,VWS V14.00,2013-02-26 15:32:00,
2013-02-26 09:33:00,50.4,1.4,29.85,WSW,239,0.0,0.0,13,0.00,,---,0.00,VWS V14.00,2013-02-26 15:33:00,
2013-02-26 09:34:00,50.4,1.4,29.85,WSW,239,0.0,0.0,13,0.00,,---,0.00,VWS V14.00,2013-02-26 15:34:00,
2013-02-26 09:37:00,51.0,0.2,29.85,WSW,239,0.0,0.0,12,0.00,,---,0.00,VWS V14.00,2013-02-26 15:37:00,
2013-02-26 09:39:00,51.1,0.3,29.85,WSW,239,0.0,0.0,12,0.00,,---,0.00,VWS V14.00,2013-02-26 15:39:00,
2013-02-26 09:42:00,51.7,0.7,29.85,WSW,239,0.0,0.0,12,0.00,,---,0.00,VWS V14.00,2013-02-26 15:42:00,
2013-02-26 09:44:00,51.9,0.9,29.84,WSW,239,0.0,0.0,12,0.00,,---,0.00,VWS V14.00,2013-02-26 15:44:00,
2013-02-26 09:47:00,52.3,-0.6,29.84,WSW,239,0.0,0.0,11,0.00,,---,0.00,VWS V14.00,2013-02-26 15:47:00,
2013-02-26 09:49:00,52.3,-0.6,29.84,SW,227,0.0,0.0,11,0.00,,---,0.00,VWS V14.00,2013-02-26 15:49:00,
2013-02-26 09:52:00,52.8,-0.2,29.84,SW,227,0.0,0.0,11,0.00,,---,0.00,VWS V14.00,2013-02-26 15:52:00,
2013-02-26 09:53:00,52.8,-0.2,29.84,SW,227,0.0,0.0,11,0.00,,---,0.00,VWS V14.00,2013-02-26 15:53:00,
2013-02-26 09:54:00,53.1,-2.0,29.84,SW,227,0.0,0.0,10,0.00,,---,0.00,VWS V14.00,2013-02-26 15:54:00,
2013-02-26 09:55:00,53.3,-1.9,29.84,SW,227,0.0,0.0,10,0.00,,---,0.00,VWS V14.00,2013-02-26 15:55:00,
2013-02-26 09:57:00,53.3,-4.1,29.84,WSW,243,0.0,6.0,9,0.00,,---,0.00,VWS V14.00,2013-02-26 15:57:00,
2013-02-26 09:58:00,53.3,-4.1,29.84,WSW,243,0.0,6.0,9,0.00,,---,0.00,VWS V14.00,2013-02-26 15:58:00,
2013-02-26 09:59:00,53.3,-4.1,29.82,SW,234,0.0,6.0,9,0.00,,---,0.00,VWS V14.00,2013-02-26 15:59:00,
2013-02-26 10:00:00,53.3,-4.1,29.82,SW,234,0.0,0.0,9,0.00,,---,0.00,VWS V14.00,2013-02-26 16:00:00,
2013-02-26 10:02:00,53.5,-3.9,29.82,WSW,243,0.0,0.0,9,0.00,,---,0.00,VWS V14.00,2013-02-26 16:02:00,
2013-02-26 10:03:00,53.5,-3.9,29.82,WSW,243,0.0,0.0,9,0.00,,---,0.00,VWS V14.00,2013-02-26 16:03:00,
2013-02-26 10:04:00,53.6,-3.9,29.82,WSW,244,0.0,0.0,9,0.00,,---,0.00,VWS V14.00,2013-02-26 16:04:00,
2013-02-26 10:05:00,53.9,-3.6,29.82,WSW,244,0.0,0.0,9,0.00,,---,0.00,VWS V14.00,2013-02-26 16:05:00,
2013-02-26 10:08:00,54.2,-3.4,29.82,WSW,256,0.0,0.0,9,0.00,,---,0.00,VWS V14.00,2013-02-26 16:08:00,
2013-02-26 10:09:00,54.4,-5.7,29.82,WSW,257,0.0,0.0,8,0.00,,---,0.00,VWS V14.00,2013-02-26 16:09:00,
2013-02-26 10:11:00,54.4,-5.7,29.82,WSW,253,0.0,0.0,8,0.00,,---,0.00,VWS V14.00,2013-02-26 16:11:00,
2013-02-26 10:13:00,54.2,-8.6,29.82,WSW,256,0.0,0.0,7,0.00,,---,0.00,VWS V14.00,2013-02-26 16:13:00,
2013-02-26 10:14:00,54.1,-8.7,29.83,West,274,3.0,6.0,7,0.00,,---,0.00,VWS V14.00,2013-02-26 16:14:00,
2013-02-26 10:16:00,53.9,-8.8,29.83,WNW,285,5.0,6.0,7,0.00,,---,0.00,VWS V14.00,2013-02-26 16:16:00,
2013-02-26 10:18:00,54.1,-8.7,29.83,WNW,291,0.0,6.0,7,0.00,,---,0.00,VWS V14.00,2013-02-26 16:18:00,
2013-02-26 10:20:00,54.2,-8.6,29.83,West,280,1.0,7.0,7,0.00,,---,0.00,VWS V14.00,2013-02-26 16:20:00,
2013-02-26 10:21:00,54.7,-5.5,29.83,West,280,0.0,7.0,8,0.00,,---,0.00,VWS V14.00,2013-02-26 16:21:00,
2013-02-26 10:23:00,54.7,-8.2,29.83,West,280,0.0,7.0,7,0.00,,---,0.00,VWS V14.00,2013-02-26 16:23:00,
2013-02-26 10:24:00,54.8,-8.1,29.83,West,280,5.0,7.0,7,0.00,,---,0.00,VWS V14.00,2013-02-26 16:24:00,
2013-02-26 10:25:00,54.8,-8.1,29.83,WNW,282,9.0,9.0,7,0.00,,---,0.00,VWS V14.00,2013-02-26 16:25:00,
2013-02-26 10:26:00,55.0,-8.0,29.83,WNW,284,0.0,9.0,7,0.00,,---,0.00,VWS V14.00,2013-02-26 16:26:00,
2013-02-26 10:28:00,55.1,-7.9,29.83,West,278,1.0,11.0,7,0.00,,---,0.00,VWS V14.00,2013-02-26 16:28:00,
2013-02-26 10:29:00,55.1,-7.9,29.81,West,278,0.0,11.0,7,0.00,,---,0.00,VWS V14.00,2013-02-26 16:29:00,
2013-02-26 10:30:00,55.1,-5.2,29.81,West,278,0.0,0.0,8,0.00,,---,0.00,VWS V14.00,2013-02-26 16:30:00,
2013-02-26 10:32:00,55.4,-7.7,29.81,West,278,1.0,3.0,7,0.00,,---,0.00,VWS V14.00,2013-02-26 16:32:00,
2013-02-26 10:33:00,55.4,-7.7,29.81,West,278,3.0,3.0,7,0.00,,---,0.00,VWS V14.00,2013-02-26 16:33:00,
2013-02-26 10:34:00,55.4,-7.7,29.81,West,278,0.0,3.0,7,0.00,,---,0.00,VWS V14.00,2013-02-26 16:34:00,
2013-02-26 10:35:00,55.4,-4.9,29.81,West,278,5.0,5.0,8,0.00,,---,0.00,VWS V14.00,2013-02-26 16:35:00,
2013-02-26 10:37:00,55.7,-7.5,29.81,WNW,294,2.0,10.0,7,0.00,,---,0.00,VWS V14.00,2013-02-26 16:37:00,
2013-02-26 10:39:00,55.9,-7.3,29.81,WNW,294,0.0,10.0,7,0.00,,---,0.00,VWS V14.00,2013-02-26 16:39:00,
2013-02-26 10:40:00,56.0,-7.2,29.81,WNW,294,0.0,10.0,7,0.00,,---,0.00,VWS V14.00,2013-02-26 16:40:00,
2013-02-26 10:42:00,55.9,-7.3,29.81,WNW,292,0.0,10.0,7,0.00,,---,0.00,VWS V14.00,2013-02-26 16:42:00,
2013-02-26 10:44:00,55.9,-4.6,29.81,West,278,0.0,10.0,8,0.00,,---,0.00,VWS V14.00,2013-02-26 16:44:00,
2013-02-26 10:45:00,55.9,-7.3,29.81,West,260,2.0,10.0,7,0.00,,---,0.00,VWS V14.00,2013-02-26 16:45:00,
2013-02-26 10:47:00,55.7,-7.5,29.81,West,260,0.0,10.0,7,0.00,,---,0.00,VWS V14.00,2013-02-26 16:47:00,
2013-02-26 10:49:00,56.0,-4.5,29.81,SSW,210,7.0,10.0,8,0.00,,---,0.00,VWS V14.00,2013-02-26 16:49:00,
2013-02-26 10:50:00,56.0,-4.5,29.81,SSW,208,3.0,10.0,8,0.00,,---,0.00,VWS V14.00,2013-02-26 16:50:00,
2013-02-26 10:53:00,56.2,-7.1,29.81,SW,223,3.0,10.0,7,0.00,,---,0.00,VWS V14.00,2013-02-26 16:53:00,
2013-02-26 10:54:00,56.2,-4.3,29.81,SW,236,2.0,10.0,8,0.00,,---,0.00,VWS V14.00,2013-02-26 16:54:00,
2013-02-26 10:55:00,56.2,-4.3,29.81,SW,236,0.0,10.0,8,0.00,,---,0.00,VWS V14.00,2013-02-26 16:55:00,
2013-02-26 10:58:00,56.5,-4.1,29.81,WSW,247,1.0,10.0,8,0.00,,---,0.00,VWS V14.00,2013-02-26 16:58:00,
2013-02-26 10:59:00,56.5,-6.9,29.80,SW,222,0.0,10.0,7,0.00,,---,0.00,VWS V14.00,2013-02-26 16:59:00,
2013-02-26 11:00:00,56.9,-6.6,29.80,SW,234,5.0,6.0,7,0.00,,---,0.00,VWS V14.00,2013-02-26 17:00:00,
2013-02-26 11:03:00,56.3,-7.0,29.80,West,267,0.0,12.0,7,0.00,,---,0.00,VWS V14.00,2013-02-26 17:03:00,
2013-02-26 11:04:00,56.2,-7.1,29.80,SW,232,7.0,12.0,7,0.00,,---,0.00,VWS V14.00,2013-02-26 17:04:00,
2013-02-26 11:05:00,55.9,-4.6,29.80,SW,217,1.0,12.0,8,0.00,,---,0.00,VWS V14.00,2013-02-26 17:05:00,
2013-02-26 11:08:00,56.2,-7.1,29.80,South,185,2.0,12.0,7,0.00,,---,0.00,VWS V14.00,2013-02-26 17:08:00,
2013-02-26 11:09:00,56.5,-6.9,29.80,SSW,192,2.0,12.0,7,0.00,,---,0.00,VWS V14.00,2013-02-26 17:09:00,
2013-02-26 11:10:00,56.5,-6.9,29.80,SSW,195,1.0,12.0,7,0.00,,---,0.00,VWS V14.00,2013-02-26 17:10:00,
2013-02-26 11:11:00,56.9,-6.6,29.80,SW,234,0.0,12.0,7,0.00,,---,0.00,VWS V14.00,2013-02-26 17:11:00,
2013-02-26 11:13:00,56.9,-3.8,29.80,West,281,0.0,15.0,8,0.00,,---,0.00,VWS V14.00,2013-02-26 17:13:00,
2013-02-26 11:14:00,56.7,-4.0,29.79,West,261,7.0,15.0,8,0.00,,---,0.00,VWS V14.00,2013-02-26 17:14:00,
2013-02-26 11:15:00,56.6,-6.8,29.79,West,272,7.0,15.0,7,0.00,,---,0.00,VWS V14.00,2013-02-26 17:15:00,
2013-02-26 11:16:00,56.7,-6.7,29.79,SW,219,6.0,15.0,7,0.00,,---,0.00,VWS V14.00,2013-02-26 17:16:00,
2013-02-26 11:19:00,56.9,-3.8,29.79,WSW,246,0.0,15.0,8,0.00,,---,0.00,VWS V14.00,2013-02-26 17:19:00,
2013-02-26 11:20:00,56.6,-4.0,29.79,SSW,208,1.0,15.0,8,0.00,,---,0.00,VWS V14.00,2013-02-26 17:20:00,
2013-02-26 11:21:00,56.9,-6.6,29.79,SSW,195,5.0,17.0,7,0.00,,---,0.00,VWS V14.00,2013-02-26 17:21:00,
2013-02-26 11:24:00,57.0,-3.7,29.79,WSW,244,5.0,17.0,8,0.00,,---,0.00,VWS V14.00,2013-02-26 17:24:00,
2013-02-26 11:25:00,56.7,-4.0,29.79,SW,232,2.0,17.0,8,0.00,,---,0.00,VWS V14.00,2013-02-26 17:25:00,
2013-02-26 11:26:00,57.0,-3.7,29.79,SSW,209,0.0,17.0,8,0.00,,---,0.00,VWS V14.00,2013-02-26 17:26:00,
2013-02-26 11:29:00,57.6,-3.3,29.80,SW,217,8.0,17.0,8,0.00,,---,0.00,VWS V14.00,2013-02-26 17:29:00,
2013-02-26 11:30:00,57.8,-3.1,29.80,WNW,291,12.0,12.0,8,0.00,,---,0.00,VWS V14.00,2013-02-26 17:30:00,
2013-02-26 11:31:00,57.2,-6.3,29.80,West,270,10.0,16.0,7,0.00,,---,0.00,VWS V14.00,2013-02-26 17:31:00,
2013-02-26 11:34:00,57.5,-6.1,29.80,SW,223,5.0,16.0,7,0.00,,---,0.00,VWS V14.00,2013-02-26 17:34:00,
2013-02-26 11:35:00,57.5,-6.1,29.80,West,260,7.0,16.0,7,0.00,,---,0.00,VWS V14.00,2013-02-26 17:35:00,
2013-02-26 11:36:00,56.7,-9.9,29.80,West,280,11.0,16.0,6,0.00,,---,0.00,VWS V14.00,2013-02-26 17:36:00,
2013-02-26 11:39:00,57.2,-3.6,29.80,WSW,251,8.0,16.0,8,0.00,,---,0.00,VWS V14.00,2013-02-26 17:39:00,
2013-02-26 11:40:00,57.3,-3.5,29.80,SW,220,6.0,16.0,8,0.00,,---,0.00,VWS V14.00,2013-02-26 17:40:00,
2013-02-26 11:41:00,57.2,-6.3,29.80,WSW,239,8.0,16.0,7,0.00,,---,0.00,VWS V14.00,2013-02-26 17:41:00,
2013-02-26 11:45:00,57.6,-3.3,29.80,SSW,202,3.0,16.0,8,0.00,,---,0.00,VWS V14.00,2013-02-26 17:45:00,
2013-02-26 11:46:00,57.2,-6.3,29.80,SW,219,7.0,16.0,7,0.00,,---,0.00,VWS V14.00,2013-02-26 17:46:00,
2013-02-26 11:50:00,57.3,-6.3,29.80,WSW,237,1.0,17.0,7,0.00,,---,0.00,VWS V14.00,2013-02-26 17:50:00,
2013-02-26 11:51:00,57.2,-3.6,29.80,WSW,251,14.0,17.0,8,0.00,,---,0.00,VWS V14.00,2013-02-26 17:51:00,
2013-02-26 11:55:00,57.2,-6.3,29.80,West,274,10.0,19.0,7,0.00,,---,0.00,VWS V14.00,2013-02-26 17:55:00,
2013-02-26 11:56:00,57.3,-3.5,29.80,WSW,257,10.0,19.0,8,0.00,,---,0.00,VWS V14.00,2013-02-26 17:56:00,
2013-02-26 12:00:00,56.7,-4.0,29.79,SW,220,12.0,12.0,8,0.00,,---,0.00,VWS V14.00,2013-02-26 18:00:00,
2013-02-26 12:01:00,56.9,-3.8,29.79,WNW,289,10.0,12.0,8,0.00,,---,0.00,VWS V14.00,2013-02-26 18:01:00,
2013-02-26 12:05:00,56.7,-4.0,29.79,SSW,202,11.0,16.0,8,0.00,,---,0.00,VWS V14.00,2013-02-26 18:05:00,
2013-02-26 12:06:00,56.9,-3.8,29.79,SW,223,14.0,16.0,8,0.00,,---,0.00,VWS V14.00,2013-02-26 18:06:00,
2013-02-26 12:07:00,57.0,-6.5,29.79,West,275,11.0,16.0,7,0.00,,---,0.00,VWS V14.00,2013-02-26 18:07:00,
2013-02-26 12:10:00,56.7,-4.0,29.79,SW,216,10.0,16.0,8,0.00,,---,0.00,VWS V14.00,2013-02-26 18:10:00,
2013-02-26 12:11:00,56.9,-3.8,29.79,WNW,289,7.0,16.0,8,0.00,,---,0.00,VWS V14.00,2013-02-26 18:11:00,
2013-02-26 12:12:00,57.2,-3.6,29.79,WSW,243,5.0,16.0,8,0.00,,---,0.00,VWS V14.00,2013-02-26 18:12:00,
2013-02-26 12:15:00,57.3,-6.3,29.84,SW,226,7.0,16.0,7,0.00,,---,0.00,VWS V14.00,2013-02-26 18:15:00,
2013-02-26 12:16:00,57.0,-6.5,29.84,WSW,253,10.0,17.0,7,0.00,,---,0.00,VWS V14.00,2013-02-26 18:16:00,
2013-02-26 12:17:00,56.9,-6.6,29.84,SSW,200,5.0,17.0,7,0.00,,---,0.00,VWS V14.00,2013-02-26 18:17:00,
2013-02-26 12:20:00,57.5,-3.4,29.84,SW,220,12.0,17.0,8,0.00,,---,0.00,VWS V14.00,2013-02-26 18:20:00,
2013-02-26 12:21:00,57.3,-6.3,29.84,WSW,241,6.0,17.0,7,0.00,,---,0.00,VWS V14.00,2013-02-26 18:21:00,
2013-02-26 12:22:00,57.5,-6.1,29.84,WSW,257,7.0,17.0,7,0.00,,---,0.00,VWS V14.00,2013-02-26 18:22:00,
2013-02-26 12:25:00,57.5,-3.4,29.84,SW,219,11.0,17.0,8,0.00,,---,0.00,VWS V14.00,2013-02-26 18:25:00,
2013-02-26 12:26:00,57.8,-9.1,29.84,SW,222,5.0,17.0,6,0.00,,---,0.00,VWS V14.00,2013-02-26 18:26:00,
2013-02-26 12:27:00,57.6,-9.2,29.84,WSW,254,0.0,17.0,6,0.00,,---,0.00,VWS V14.00,2013-02-26 18:27:00,
2013-02-26 12:30:00,57.6,-6.1,29.83,SSW,195,7.0,14.0,7,0.00,,---,0.00,VWS V14.00,2013-02-26 18:30:00,
2013-02-26 12:31:00,57.8,-5.9,29.83,SSW,195,7.0,14.0,7,0.00,,---,0.00,VWS V14.00,2013-02-26 18:31:00,
2013-02-26 12:32:00,57.6,-6.1,29.83,SW,217,8.0,14.0,7,0.00,,---,0.00,VWS V14.00,2013-02-26 18:32:00,
2013-02-26 12:36:00,57.8,-3.1,29.83,SSW,209,5.0,14.0,8,0.00,,---,0.00,VWS V14.00,2013-02-26 18:36:00,
2013-02-26 12:37:00,57.5,-3.4,29.83,SW,216,10.0,14.0,8,0.00,,---,0.00,VWS V14.00,2013-02-26 18:37:00,
2013-02-26 12:41:00,57.8,-5.9,29.83,SW,224,10.0,14.0,7,0.00,,---,0.00,VWS V14.00,2013-02-26 18:41:00,
2013-02-26 12:42:00,57.5,-6.1,29.83,NW,309,8.0,14.0,7,0.00,,---,0.00,VWS V14.00,2013-02-26 18:42:00,
2013-02-26 12:46:00,57.5,-6.1,29.82,West,281,6.0,14.0,7,0.00,,---,0.00,VWS V14.00,2013-02-26 18:46:00,
2013-02-26 12:47:00,57.5,-6.1,29.82,SW,215,8.0,17.0,7,0.00,,---,0.00,VWS V14.00,2013-02-26 18:47:00,
2013-02-26 12:51:00,57.8,-5.9,29.82,SSW,203,12.0,17.0,7,0.00,,---,0.00,VWS V14.00,2013-02-26 18:51:00,
2013-02-26 12:52:00,57.2,-3.6,29.82,SW,227,18.0,18.0,8,0.00,,---,0.00,VWS V14.00,2013-02-26 18:52:00,
2013-02-26 12:56:00,58.0,-5.8,29.82,West,261,13.0,18.0,7,0.00,,---,0.00,VWS V14.00,2013-02-26 18:56:00,
2013-02-26 12:57:00,57.6,-9.2,29.82,WSW,250,0.0,18.0,6,0.00,,---,0.00,VWS V14.00,2013-02-26 18:57:00,
2013-02-26 12:58:00,58.3,-8.7,29.82,SW,227,6.0,18.0,6,0.00,,---,0.00,VWS V14.00,2013-02-26 18:58:00,
2013-02-26 13:01:00,58.4,-8.6,29.82,SW,220,11.0,14.0,6,0.00,,---,0.00,VWS V14.00,2013-02-26 19:01:00,
2013-02-26 13:02:00,58.7,-8.4,29.82,SW,236,3.0,14.0,6,0.00,,---,0.00,VWS V14.00,2013-02-26 19:02:00,
2013-02-26 13:03:00,58.9,-8.3,29.82,WSW,237,5.0,14.0,6,0.00,,---,0.00,VWS V14.00,2013-02-26 19:03:00,
2013-02-26 13:06:00,59.3,-4.8,29.82,SSW,200,5.0,14.0,7,0.00,,---,0.00,VWS V14.00,2013-02-26 19:06:00,
2013-02-26 13:08:00,59.3,-4.8,29.82,WSW,239,12.0,14.0,7,0.00,,---,0.00,VWS V14.00,2013-02-26 19:08:00,
2013-02-26 13:11:00,59.2,-4.9,29.82,SSW,205,7.0,14.0,7,0.00,,---,0.00,VWS V14.00,2013-02-26 19:11:00,
2013-02-26 13:13:00,59.0,-5.0,29.82,SW,227,5.0,14.0,7,0.00,,---,0.00,VWS V14.00,2013-02-26 19:13:00,
2013-02-26 13:16:00,59.0,-5.0,29.73,WNW,289,6.0,14.0,7,0.00,,---,0.00,VWS V14.00,2013-02-26 19:16:00,
2013-02-26 13:18:00,59.2,-4.9,29.73,West,263,7.0,14.0,7,0.00,,---,0.00,VWS V14.00,2013-02-26 19:18:00,
2013-02-26 13:22:00,59.2,-8.0,29.73,SW,217,0.0,16.0,6,0.00,,---,0.00,VWS V14.00,2013-02-26 19:22:00,
2013-02-26 13:23:00,59.3,-4.8,29.73,SW,220,10.0,16.0,7,0.00,,---,0.00,VWS V14.00,2013-02-26 19:23:00,
2013-02-26 13:24:00,59.5,-4.7,29.73,SW,224,2.0,16.0,7,0.00,,---,0.00,VWS V14.00,2013-02-26 19:24:00,
2013-02-26 13:28:00,59.8,-7.6,29.73,WNW,284,10.0,16.0,6,0.00,,---,0.00,VWS V14.00,2013-02-26 19:28:00,
2013-02-26 13:29:00,59.5,-7.8,29.71,WSW,253,4.0,16.0,6,0.00,,---,0.00,VWS V14.00,2013-02-26 19:29:00,
2013-02-26 13:33:00,59.6,-7.8,29.71,SSW,212,7.0,18.0,6,0.00,,---,0.00,VWS V14.00,2013-02-26 19:33:00,
2013-02-26 13:34:00,59.5,-7.8,29.71,West,275,5.0,18.0,6,0.00,,---,0.00,VWS V14.00,2013-02-26 19:34:00,
2013-02-26 13:38:00,59.5,-4.7,29.71,SSW,200,8.0,18.0,7,0.00,,---,0.00,VWS V14.00,2013-02-26 19:38:00,
2013-02-26 13:40:00,59.6,-4.6,29.71,SSW,206,6.0,18.0,7,0.00,,---,0.00,VWS V14.00,2013-02-26 19:40:00,
2013-02-26 13:43:00,59.9,-4.3,29.71,SSW,212,7.0,18.0,7,0.00,,---,0.00,VWS V14.00,2013-02-26 19:43:00,
2013-02-26 13:45:00,59.5,-7.8,29.70,SSW,212,7.0,18.0,6,0.00,,---,0.00,VWS V14.00,2013-02-26 19:45:00,
2013-02-26 13:48:00,59.3,-8.0,29.70,South,189,13.0,20.0,6,0.00,,---,0.00,VWS V14.00,2013-02-26 19:48:00,
2013-02-26 13:50:00,59.5,-4.7,29.70,SW,222,10.0,20.0,7,0.00,,---,0.00,VWS V14.00,2013-02-26 19:50:00,
2013-02-26 13:53:00,59.6,-4.6,29.70,SSW,212,12.0,20.0,7,0.00,,---,0.00,VWS V14.00,2013-02-26 19:53:00,
2013-02-26 13:54:00,59.0,-5.0,29.70,SW,219,10.0,20.0,7,0.00,,---,0.00,VWS V14.00,2013-02-26 19:54:00,
2013-02-26 13:55:00,59.5,-7.8,29.70,SW,217,0.0,20.0,6,0.00,,---,0.00,VWS V14.00,2013-02-26 19:55:00,
2013-02-26 13:58:00,59.9,-7.5,29.70,SW,216,10.0,20.0,6,0.00,,---,0.00,VWS V14.00,2013-02-26 19:58:00,
2013-02-26 13:59:00,60.1,-7.4,29.69,SSW,212,13.0,20.0,6,0.00,,---,0.00,VWS V14.00,2013-02-26 19:59:00,
2013-02-26 14:01:00,60.1,-1.4,29.69,West,277,7.0,12.0,8,0.00,,---,0.00,VWS V14.00,2013-02-26 20:01:00,
2013-02-26 14:03:00,60.4,-1.2,29.69,WSW,247,5.0,18.0,8,0.00,,---,0.00,VWS V14.00,2013-02-26 20:03:00,
2013-02-26 14:04:00,60.1,-4.2,29.69,West,274,13.0,18.0,7,0.00,,---,0.00,VWS V14.00,2013-02-26 20:04:00,
2013-02-26 14:06:00,60.1,-1.4,29.69,WSW,246,7.0,18.0,8,0.00,,---,0.00,VWS V14.00,2013-02-26 20:06:00,
2013-02-26 14:09:00,59.6,-4.6,29.69,SW,224,8.0,18.0,7,0.00,,---,0.00,VWS V14.00,2013-02-26 20:09:00,
2013-02-26 14:11:00,59.0,-5.0,29.69,SSW,212,5.0,20.0,7,0.00,,---,0.00,VWS V14.00,2013-02-26 20:11:00,
2013-02-26 14:14:00,59.5,-4.7,29.69,SW,216,7.0,20.0,7,0.00,,---,0.00,VWS V14.00,2013-02-26 20:14:00,
2013-02-26 14:15:00,59.2,-4.9,29.71,South,176,6.0,20.0,7,0.00,,---,0.00,VWS V14.00,2013-02-26 20:15:00,
2013-02-26 14:17:00,59.6,-4.6,29.71,SSW,212,10.0,20.0,7,0.00,,---,0.00,VWS V14.00,2013-02-26 20:17:00,
2013-02-26 14:19:00,59.6,-4.6,29.71,SSW,205,17.0,20.0,7,0.00,,---,0.00,VWS V14.00,2013-02-26 20:19:00,
2013-02-26 14:20:00,59.6,-4.6,29.71,SW,220,12.0,20.0,7,0.00,,---,0.00,VWS V14.00,2013-02-26 20:20:00,
2013-02-26 14:22:00,59.8,-7.6,29.71,SSW,200,12.0,20.0,6,0.00,,---,0.00,VWS V14.00,2013-02-26 20:22:00,
2013-02-26 14:24:00,59.9,-1.5,29.71,SW,236,7.0,20.0,8,0.00,,---,0.00,VWS V14.00,2013-02-26 20:24:00,
2013-02-26 14:25:00,59.9,-7.5,29.71,South,186,5.0,20.0,6,0.00,,---,0.00,VWS V14.00,2013-02-26 20:25:00,
2013-02-26 14:27:00,60.2,-4.1,29.71,SSW,206,6.0,20.0,7,0.00,,---,0.00,VWS V14.00,2013-02-26 20:27:00,
2013-02-26 14:29:00,60.7,-6.9,29.70,SSW,203,5.0,20.0,6,0.00,,---,0.00,VWS V14.00,2013-02-26 20:29:00,
2013-02-26 14:30:00,60.4,-7.2,29.70,SSW,209,8.0,11.0,6,0.00,,---,0.00,VWS V14.00,2013-02-26 20:30:00,
2013-02-26 14:33:00,60.4,-4.0,29.70,South,189,10.0,21.0,7,0.00,,---,0.00,VWS V14.00,2013-02-26 20:33:00,
2013-02-26 14:35:00,59.9,-7.5,29.70,SW,224,10.0,21.0,6,0.00,,---,0.00,VWS V14.00,2013-02-26 20:35:00,
2013-02-26 14:38:00,60.2,-7.3,29.70,SW,233,8.0,21.0,6,0.00,,---,0.00,VWS V14.00,2013-02-26 20:38:00,
2013-02-26 14:40:00,60.1,-7.4,29.70,West,270,4.0,21.0,6,0.00,,---,0.00,VWS V14.00,2013-02-26 20:40:00,
2013-02-26 14:41:00,60.4,-4.0,29.70,SW,229,8.0,21.0,7,0.00,,---,0.00,VWS V14.00,2013-02-26 20:41:00,
2013-02-26 14:43:00,60.9,-3.6,29.70,WSW,240,4.0,21.0,7,0.00,,---,0.00,VWS V14.00,2013-02-26 20:43:00,
2013-02-26 14:45:00,60.9,-6.8,29.69,SW,219,4.0,21.0,6,0.00,,---,0.00,VWS V14.00,2013-02-26 20:45:00,
2013-02-26 14:46:00,60.4,-7.2,29.69,SSW,205,6.0,21.0,6,0.00,,---,0.00,VWS V14.00,2013-02-26 20:46:00,
2013-02-26 14:48:00,60.9,-3.6,29.69,WSW,241,7.0,21.0,7,0.00,,---,0.00,VWS V14.00,2013-02-26 20:48:00,
2013-02-26 14:50:00,61.0,-3.5,29.69,West,280,0.0,21.0,7,0.00,,---,0.00,VWS V14.00,2013-02-26 20:50:00,
2013-02-26 14:51:00,61.2,-3.4,29.69,West,272,0.0,21.0,7,0.00,,---,0.00,VWS V14.00,2013-02-26 20:51:00,
2013-02-26 14:53:00,60.7,-10.6,29.69,WSW,237,8.0,21.0,5,0.00,,---,0.00,VWS V14.00,2013-02-26 20:53:00,
2013-02-26 14:55:00,61.0,-10.4,29.69,WSW,250,7.0,21.0,5,0.00,,---,0.00,VWS V14.00,2013-02-26 20:55:00,
2013-02-26 14:56:00,60.9,-10.5,29.69,West,261,11.0,21.0,5,0.00,,---,0.00,VWS V14.00,2013-02-26 20:56:00,
2013-02-26 14:57:00,60.7,-6.9,29.69,WNW,285,6.0,21.0,6,0.00,,---,0.00,VWS V14.00,2013-02-26 20:57:00,
2013-02-26 15:00:00,61.0,-6.7,29.69,WNW,288,7.0,21.0,6,0.00,,---,0.00,VWS V14.00,2013-02-26 21:00:00,
2013-02-26 15:01:00,61.0,-10.4,29.69,SW,223,5.0,13.0,5,0.00,,---,0.00,VWS V14.00,2013-02-26 21:01:00,
2013-02-26 15:02:00,61.2,-10.3,29.69,South,185,7.0,13.0,5,0.00,,---,0.00,VWS V14.00,2013-02-26 21:02:00,
2013-02-26 15:05:00,60.5,-7.1,29.69,SW,216,11.0,14.0,6,0.00,,---,0.00,VWS V14.00,2013-02-26 21:05:00,
2013-02-26 15:06:00,60.9,-6.8,29.69,SW,234,11.0,16.0,6,0.00,,---,0.00,VWS V14.00,2013-02-26 21:06:00,
2013-02-26 15:07:00,60.9,-6.8,29.69,SSW,206,11.0,16.0,6,0.00,,---,0.00,VWS V14.00,2013-02-26 21:07:00,
2013-02-26 15:10:00,60.7,-6.9,29.69,WSW,251,10.0,16.0,6,0.00,,---,0.00,VWS V14.00,2013-02-26 21:10:00,
2013-02-26 15:11:00,60.5,-7.1,29.69,West,280,8.0,16.0,6,0.00,,---,0.00,VWS V14.00,2013-02-26 21:11:00,
2013-02-26 15:12:00,60.4,-7.2,29.69,SW,219,6.0,16.0,6,0.00,,---,0.00,VWS V14.00,2013-02-26 21:12:00,
2013-02-26 15:15:00,61.5,-6.4,29.71,SW,224,10.0,19.0,6,0.00,,---,0.00,VWS V14.00,2013-02-26 21:15:00,
2013-02-26 15:16:00,61.5,-6.4,29.71,West,275,5.0,19.0,6,0.00,,---,0.00,VWS V14.00,2013-02-26 21:16:00,
2013-02-26 15:17:00,61.5,-10.1,29.71,WSW,250,6.0,19.0,5,0.00,,---,0.00,VWS V14.00,2013-02-26 21:17:00,
2013-02-26 15:20:00,62.0,-9.7,29.71,SW,229,0.0,19.0,5,0.00,,---,0.00,VWS V14.00,2013-02-26 21:20:00,
2013-02-26 15:21:00,62.0,-9.7,29.71,SSW,213,2.0,19.0,5,0.00,,---,0.00,VWS V14.00,2013-02-26 21:21:00,
2013-02-26 15:22:00,61.5,-6.4,29.71,SSW,203,10.0,19.0,6,0.00,,---,0.00,VWS V14.00,2013-02-26 21:22:00,
2013-02-26 15:25:00,60.5,-10.8,29.71,SSW,202,13.0,20.0,5,0.00,,---,0.00,VWS V14.00,2013-02-26 21:25:00,
2013-02-26 15:26:00,60.7,-6.9,29.71,SSW,205,10.0,20.0,6,0.00,,---,0.00,VWS V14.00,2013-02-26 21:26:00,
2013-02-26 15:27:00,60.7,-6.9,29.71,South,184,10.0,20.0,6,0.00,,---,0.00,VWS V14.00,2013-02-26 21:27:00,
2013-02-26 15:30:00,61.2,-6.6,29.71,SW,224,10.0,10.0,6,0.00,,---,0.00,VWS V14.00,2013-02-26 21:30:00,
2013-02-26 15:31:00,61.5,-6.4,29.71,SSW,213,3.0,10.0,6,0.00,,---,0.00,VWS V14.00,2013-02-26 21:31:00,
2013-02-26 15:32:00,61.6,-6.3,29.71,SW,220,7.0,10.0,6,0.00,,---,0.00,VWS V14.00,2013-02-26 21:32:00,
2013-02-26 15:35:00,62.1,-9.6,29.71,SSW,205,4.0,11.0,5,0.00,,---,0.00,VWS V14.00,2013-02-26 21:35:00,
2013-02-26 15:36:00,62.1,-9.6,29.71,SSW,210,7.0,11.0,5,0.00,,---,0.00,VWS V14.00,2013-02-26 21:36:00,
2013-02-26 15:37:00,62.1,-9.6,29.71,SSW,193,2.0,12.0,5,0.00,,---,0.00,VWS V14.00,2013-02-26 21:37:00,
2013-02-26 15:38:00,62.1,-9.6,29.71,WSW,240,7.0,14.0,5,0.00,,---,0.00,VWS V14.00,2013-02-26 21:38:00,
2013-02-26 15:40:00,60.7,-6.9,29.71,WSW,253,16.0,18.0,6,0.00,,---,0.00,VWS V14.00,2013-02-26 21:40:00,
2013-02-26 15:41:00,60.7,-6.9,29.71,WSW,241,11.0,18.0,6,0.00,,---,0.00,VWS V14.00,2013-02-26 21:41:00,
2013-02-26 15:42:00,60.9,-6.8,29.71,WSW,253,8.0,18.0,6,0.00,,---,0.00,VWS V14.00,2013-02-26 21:42:00,
2013-02-26 15:43:00,60.7,-6.9,29.71,West,274,7.0,18.0,6,0.00,,---,0.00,VWS V14.00,2013-02-26 21:43:00,
2013-02-26 15:45:00,60.1,-7.4,29.71,West,271,9.0,18.0,6,0.00,,---,0.00,VWS V14.00,2013-02-26 21:45:00,
2013-02-26 15:46:00,59.8,-7.6,29.71,West,281,11.0,18.0,6,0.00,,---,0.00,VWS V14.00,2013-02-26 21:46:00,
2013-02-26 15:47:00,59.8,-7.6,29.71,West,275,6.0,18.0,6,0.00,,---,0.00,VWS V14.00,2013-02-26 21:47:00,
2013-02-26 15:48:00,59.6,-7.8,29.71,West,274,10.0,18.0,6,0.00,,---,0.00,VWS V14.00,2013-02-26 21:48:00,
2013-02-26 15:50:00,59.6,-4.6,29.71,SW,236,6.0,18.0,7,0.00,,---,0.00,VWS V14.00,2013-02-26 21:50:00,
2013-02-26 15:51:00,59.8,-4.4,29.71,SSW,192,0.0,18.0,7,0.00,,---,0.00,VWS V14.00,2013-02-26 21:51:00,
2013-02-26 15:52:00,59.9,-7.5,29.71,SSW,192,0.0,18.0,6,0.00,,---,0.00,VWS V14.00,2013-02-26 21:52:00,
2013-02-26 15:53:00,59.9,-7.5,29.71,WSW,258,0.0,18.0,6,0.00,,---,0.00,VWS V14.00,2013-02-26 21:53:00,
2013-02-26 15:56:00,60.4,-4.0,29.71,SSE,168,11.0,20.0,7,0.00,,---,0.00,VWS V14.00,2013-02-26 21:56:00,
2013-02-26 15:57:00,60.4,-10.9,29.71,SW,222,6.0,20.0,5,0.00,,---,0.00,VWS V14.00,2013-02-26 21:57:00,
2013-02-26 15:58:00,60.2,-11.0,29.71,SSW,213,5.0,20.0,5,0.00,,---,0.00,VWS V14.00,2013-02-26 21:58:00,
2013-02-26 16:01:00,60.5,-3.9,29.71,South,188,6.0,14.0,7,0.00,,---,0.00,VWS V14.00,2013-02-26 22:01:00,
2013-02-26 16:02:00,60.7,-6.9,29.71,South,188,14.0,14.0,6,0.00,,---,0.00,VWS V14.00,2013-02-26 22:02:00,
2013-02-26 16:03:00,60.1,-7.4,29.71,SSW,210,10.0,16.0,6,0.00,,---,0.00,VWS V14.00,2013-02-26 22:03:00,
2013-02-26 16:06:00,60.2,-4.1,29.71,West,268,3.0,17.0,7,0.00,,---,0.00,VWS V14.00,2013-02-26 22:06:00,
2013-02-26 16:07:00,60.5,-3.9,29.71,WSW,239,10.0,17.0,7,0.00,,---,0.00,VWS V14.00,2013-02-26 22:07:00,
2013-02-26 16:08:00,60.5,-7.1,29.71,SW,232,5.0,17.0,6,0.00,,---,0.00,VWS V14.00,2013-02-26 22:08:00,
2013-02-26 16:11:00,60.2,-4.1,29.71,West,261,0.0,17.0,7,0.00,,---,0.00,VWS V14.00,2013-02-26 22:11:00,
2013-02-26 16:12:00,60.1,-4.2,29.71,SSW,199,1.0,17.0,7,0.00,,---,0.00,VWS V14.00,2013-02-26 22:12:00,
2013-02-26 16:13:00,60.2,-7.3,29.71,SSW,203,0.0,17.0,6,0.00,,---,0.00,VWS V14.00,2013-02-26 22:13:00,
2013-02-26 16:14:00,60.2,-7.3,29.72,SSW,203,0.0,17.0,6,0.00,,---,0.00,VWS V14.00,2013-02-26 22:14:00,
2013-02-26 16:16:00,60.4,-4.0,29.72,SW,229,7.0,17.0,7,0.00,,---,0.00,VWS V14.00,2013-02-26 22:16:00,
2013-02-26 16:17:00,60.7,-6.9,29.72,SW,222,8.0,17.0,6,0.00,,---,0.00,VWS V14.00,2013-02-26 22:17:00,
2013-02-26 16:18:00,60.7,-3.8,29.72,SSW,213,8.0,17.0,7,0.00,,---,0.00,VWS V14.00,2013-02-26 22:18:00,
2013-02-26 16:19:00,60.7,-3.8,29.72,West,280,7.0,17.0,7,0.00,,---,0.00,VWS V14.00,2013-02-26 22:19:00,
2013-02-26 16:21:00,60.7,-3.8,29.72,SW,223,8.0,17.0,7,0.00,,---,0.00,VWS V14.00,2013-02-26 22:21:00,
2013-02-26 16:22:00,60.7,-3.8,29.72,West,274,3.0,17.0,7,0.00,,---,0.00,VWS V14.00,2013-02-26 22:22:00,
2013-02-26 16:23:00,60.9,-3.6,29.72,South,179,8.0,17.0,7,0.00,,---,0.00,VWS V14.00,2013-02-26 22:23:00,
2013-02-26 16:24:00,60.5,-3.9,29.72,SSW,200,13.0,18.0,7,0.00,,---,0.00,VWS V14.00,2013-02-26 22:24:00,
2013-02-26 16:26:00,60.2,-4.1,29.72,WNW,284,10.0,18.0,7,0.00,,---,0.00,VWS V14.00,2013-02-26 22:26:00,
2013-02-26 16:27:00,60.4,-4.0,29.72,WSW,244,3.0,18.0,7,0.00,,---,0.00,VWS V14.00,2013-02-26 22:27:00,
2013-02-26 16:28:00,60.4,-4.0,29.72,West,261,13.0,18.0,7,0.00,,---,0.00,VWS V14.00,2013-02-26 22:28:00,
2013-02-26 16:29:00,60.4,-4.0,29.72,South,189,12.0,18.0,7,0.00,,---,0.00,VWS V14.00,2013-02-26 22:29:00,
2013-02-26 16:32:00,60.1,-4.2,29.72,SSW,209,3.0,17.0,7,0.00,,---,0.00,VWS V14.00,2013-02-26 22:32:00,
2013-02-26 16:33:00,60.1,-7.4,29.72,SSW,213,10.0,17.0,6,0.00,,---,0.00,VWS V14.00,2013-02-26 22:33:00,
2013-02-26 16:34:00,60.1,-7.4,29.72,South,189,3.0,17.0,6,0.00,,---,0.00,VWS V14.00,2013-02-26 22:34:00,
2013-02-26 16:37:00,59.9,-7.5,29.72,SSW,213,14.0,17.0,6,0.00,,---,0.00,VWS V14.00,2013-02-26 22:37:00,
2013-02-26 16:39:00,59.6,-7.8,29.72,SW,224,11.0,17.0,6,0.00,,---,0.00,VWS V14.00,2013-02-26 22:39:00,
2013-02-26 16:40:00,59.9,-7.5,29.72,SSW,200,8.0,17.0,6,0.00,,---,0.00,VWS V14.00,2013-02-26 22:40:00,
2013-02-26 16:42:00,60.2,-4.1,29.72,WSW,243,8.0,17.0,7,0.00,,---,0.00,VWS V14.00,2013-02-26 22:42:00,
2013-02-26 16:44:00,60.2,-4.1,29.72,WSW,256,2.0,17.0,7,0.00,,---,0.00,VWS V14.00,2013-02-26 22:44:00,
2013-02-26 16:45:00,60.2,-4.1,29.72,SW,220,7.0,17.0,7,0.00,,---,0.00,VWS V14.00,2013-02-26 22:45:00,
2013-02-26 16:47:00,60.4,-7.2,29.72,SW,233,2.0,17.0,6,0.00,,---,0.00,VWS V14.00,2013-02-26 22:47:00,
2013-02-26 16:48:00,60.4,-7.2,29.72,WSW,253,9.0,17.0,6,0.00,,---,0.00,VWS V14.00,2013-02-26 22:48:00,
2013-02-26 16:49:00,60.2,-7.3,29.72,SW,224,10.0,17.0,6,0.00,,---,0.00,VWS V14.00,2013-02-26 22:49:00,
2013-02-26 16:50:00,60.4,-7.2,29.72,SSW,209,9.0,17.0,6,0.00,,---,0.00,VWS V14.00,2013-02-26 22:50:00,
2013-02-26 16:52:00,60.1,-4.2,29.72,SSW,205,11.0,17.0,7,0.00,,---,0.00,VWS V14.00,2013-02-26 22:52:00,
2013-02-26 16:53:00,59.9,-4.3,29.72,West,274,7.0,17.0,7,0.00,,---,0.00,VWS V14.00,2013-02-26 22:53:00,
2013-02-26 16:54:00,59.9,-7.5,29.72,SW,227,5.0,17.0,6,0.00,,---,0.00,VWS V14.00,2013-02-26 22:54:00,
2013-02-26 16:56:00,60.1,-7.4,29.72,South,186,11.0,17.0,6,0.00,,---,0.00,VWS V14.00,2013-02-26 22:56:00,
2013-02-26 16:57:00,60.2,-7.3,29.72,SW,229,0.0,17.0,6,0.00,,---,0.00,VWS V14.00,2013-02-26 22:57:00,
2013-02-26 16:58:00,60.1,-7.4,29.72,SW,219,8.0,17.0,6,0.00,,---,0.00,VWS V14.00,2013-02-26 22:58:00,
2013-02-26 16:59:00,60.2,-4.1,29.72,SW,220,11.0,17.0,7,0.00,,---,0.00,VWS V14.00,2013-02-26 22:59:00,
2013-02-26 17:01:00,60.1,-4.2,29.72,SSW,199,5.0,11.0,7,0.00,,---,0.00,VWS V14.00,2013-02-26 23:01:00,
2013-02-26 17:03:00,59.8,-7.6,29.72,South,191,0.0,13.0,6,0.00,,---,0.00,VWS V14.00,2013-02-26 23:03:00,
2013-02-26 17:04:00,59.5,-4.7,29.72,SW,222,5.0,17.0,7,0.00,,---,0.00,VWS V14.00,2013-02-26 23:04:00,
2013-02-26 17:06:00,59.5,-7.8,29.72,WNW,284,7.0,17.0,6,0.00,,---,0.00,VWS V14.00,2013-02-26 23:06:00,
2013-02-26 17:08:00,59.5,-7.8,29.72,WSW,246,8.0,17.0,6,0.00,,---,0.00,VWS V14.00,2013-02-26 23:08:00,
2013-02-26 17:09:00,59.5,-7.8,29.72,SW,223,8.0,17.0,6,0.00,,---,0.00,VWS V14.00,2013-02-26 23:09:00,
2013-02-26 17:11:00,59.5,-7.8,29.72,SSW,212,1.0,17.0,6,0.00,,---,0.00,VWS V14.00,2013-02-26 23:11:00,
2013-02-26 17:13:00,59.8,-4.4,29.72,WSW,248,0.0,17.0,7,0.00,,---,0.00,VWS V14.00,2013-02-26 23:13:00,
2013-02-26 17:14:00,59.5,-7.8,29.75,SSW,200,5.0,17.0,6,0.00,,---,0.00,VWS V14.00,2013-02-26 23:14:00,
2013-02-26 17:16:00,59.5,-4.7,29.75,SSW,196,10.0,17.0,7,0.00,,---,0.00,VWS V14.00,2013-02-26 23:16:00,
2013-02-26 17:18:00,59.6,-7.8,29.75,WSW,240,7.0,17.0,6,0.00,,---,0.00,VWS V14.00,2013-02-26 23:18:00,
2013-02-26 17:19:00,59.6,-7.8,29.75,WSW,239,5.0,17.0,6,0.00,,---,0.00,VWS V14.00,2013-02-26 23:19:00,
2013-02-26 17:21:00,59.2,-4.9,29.75,SW,222,8.0,19.0,7,0.00,,---,0.00,VWS V14.00,2013-02-26 23:21:00,
2013-02-26 17:23:00,59.2,-8.0,29.75,WSW,244,6.0,19.0,6,0.00,,---,0.00,VWS V14.00,2013-02-26 23:23:00,
2013-02-26 17:24:00,59.2,-8.0,29.75,West,280,12.0,19.0,6,0.00,,---,0.00,VWS V14.00,2013-02-26 23:24:00,
2013-02-26 17:25:00,59.0,-8.2,29.75,West,281,5.0,19.0,6,0.00,,---,0.00,VWS V14.00,2013-02-26 23:25:00,
2013-02-26 17:26:00,59.2,-8.0,29.75,West,271,0.0,19.0,6,0.00,,---,0.00,VWS V14.00,2013-02-26 23:26:00,
2013-02-26 17:28:00,59.3,-8.0,29.75,WNW,292,8.0,19.0,6,0.00,,---,0.00,VWS V14.00,2013-02-26 23:28:00,
2013-02-26 17:29:00,58.9,-5.1,29.76,WNW,289,7.0,19.0,7,0.00,,---,0.00,VWS V14.00,2013-02-26 23:29:00,
2013-02-26 17:30:00,58.9,-5.1,29.76,SW,232,6.0,13.0,7,0.00,,---,0.00,VWS V14.00,2013-02-26 23:30:00,
2013-02-26 17:32:00,58.9,-5.1,29.76,SW,217,0.0,13.0,7,0.00,,---,0.00,VWS V14.00,2013-02-26 23:32:00,
2013-02-26 17:33:00,59.0,-5.0,29.76,SSW,203,8.0,13.0,7,0.00,,---,0.00,VWS V14.00,2013-02-26 23:33:00,
2013-02-26 17:34:00,59.2,-8.0,29.76,SSW,209,0.0,13.0,6,0.00,,---,0.00,VWS V14.00,2013-02-26 23:34:00,
2013-02-26 17:35:00,59.2,-4.9,29.76,West,274,5.0,13.0,7,0.00,,---,0.00,VWS V14.00,2013-02-26 23:35:00,
2013-02-26 17:37:00,58.7,-5.2,29.76,West,270,7.0,14.0,7,0.00,,---,0.00,VWS V14.00,2013-02-26 23:37:00,
2013-02-26 17:38:00,58.4,-2.7,29.76,WSW,247,4.0,14.0,8,0.00,,---,0.00,VWS V14.00,2013-02-26 23:38:00,
2013-02-26 17:39:00,58.4,-2.7,29.76,West,275,7.0,14.0,8,0.00,,---,0.00,VWS V14.00,2013-02-26 23:39:00,
2013-02-26 17:40:00,58.4,-5.5,29.76,West,275,0.0,14.0,7,0.00,,---,0.00,VWS V14.00,2013-02-26 23:40:00,
2013-02-26 17:42:00,58.4,-5.5,29.76,SW,234,0.0,14.0,7,0.00,,---,0.00,VWS V14.00,2013-02-26 23:42:00,
2013-02-26 17:43:00,58.3,-5.5,29.76,SW,219,6.0,14.0,7,0.00,,---,0.00,VWS V14.00,2013-02-26 23:43:00,
2013-02-26 17:44:00,58.3,-5.5,29.77,West,260,8.0,14.0,7,0.00,,---,0.00,VWS V14.00,2013-02-26 23:44:00,
2013-02-26 17:45:00,58.1,-2.9,29.77,West,267,3.0,14.0,8,0.00,,---,0.00,VWS V14.00,2013-02-26 23:45:00,
2013-02-26 17:47:00,58.1,-5.7,29.77,West,281,0.0,14.0,7,0.00,,---,0.00,VWS V14.00,2013-02-26 23:47:00,
2013-02-26 17:49:00,58.0,-5.8,29.77,South,182,0.0,14.0,7,0.00,,---,0.00,VWS V14.00,2013-02-26 23:49:00,
2013-02-26 17:50:00,58.0,-3.0,29.77,SW,232,9.0,14.0,8,0.00,,---,0.00,VWS V14.00,2013-02-26 23:50:00,
2013-02-26 17:52:00,58.0,-5.8,29.77,WSW,239,0.0,14.0,7,0.00,,---,0.00,VWS V14.00,2013-02-26 23:52:00,
2013-02-26 17:54:00,58.0,-5.8,29.77,WSW,239,7.0,14.0,7,0.00,,---,0.00,VWS V14.00,2013-02-26 23:54:00,
2013-02-26 17:55:00,57.8,-5.9,29.77,WNW,288,7.0,14.0,7,0.00,,---,0.00,VWS V14.00,2013-02-26 23:55:00,
2013-02-26 17:58:00,57.3,-6.3,29.77,West,271,4.0,14.0,7,0.00,,---,0.00,VWS V14.00,2013-02-26 23:58:00,
2013-02-26 17:59:00,57.3,-6.3,29.77,SW,230,3.0,14.0,7,0.00,,---,0.00,VWS V14.00,2013-02-26 23:59:00,
2013-02-26 18:00:00,57.2,-3.6,29.77,West,264,6.0,11.0,8,0.00,,---,0.00,VWS V14.00,2013-02-27 00:00:00,
2013-02-26 18:03:00,57.0,-6.5,29.77,SSW,202,0.0,11.0,7,0.00,,---,0.00,VWS V14.00,2013-02-27 00:03:00,
2013-02-26 18:04:00,56.9,-6.6,29.77,SW,217,8.0,11.0,7,0.00,,---,0.00,VWS V14.00,2013-02-27 00:04:00,
2013-02-26 18:05:00,56.9,-6.6,29.77,SSW,198,5.0,11.0,7,0.00,,---,0.00,VWS V14.00,2013-02-27 00:05:00,
2013-02-26 18:08:00,56.7,-6.7,29.77,WSW,254,3.0,11.0,7,0.00,,---,0.00,VWS V14.00,2013-02-27 00:08:00,
2013-02-26 18:09:00,56.9,-6.6,29.77,WSW,254,0.0,11.0,7,0.00,,---,0.00,VWS V14.00,2013-02-27 00:09:00,
2013-02-26 18:10:00,56.7,-6.7,29.77,WSW,254,0.0,11.0,7,0.00,,---,0.00,VWS V14.00,2013-02-27 00:10:00,
2013-02-26 18:13:00,56.6,-6.8,29.77,WSW,246,7.0,11.0,7,0.00,,---,0.00,VWS V14.00,2013-02-27 00:13:00,
2013-02-26 18:14:00,56.6,-6.8,29.76,West,275,0.0,11.0,7,0.00,,---,0.00,VWS V14.00,2013-02-27 00:14:00,
2013-02-26 18:15:00,56.5,-6.9,29.76,West,281,2.0,11.0,7,0.00,,---,0.00,VWS V14.00,2013-02-27 00:15:00,
2013-02-26 18:18:00,56.2,-4.3,29.76,South,184,7.0,11.0,8,0.00,,---,0.00,VWS V14.00,2013-02-27 00:18:00,
2013-02-26 18:19:00,56.0,-4.5,29.76,WSW,239,4.0,11.0,8,0.00,,---,0.00,VWS V14.00,2013-02-27 00:19:00,
2013-02-26 18:21:00,56.0,-4.5,29.76,SW,232,0.0,11.0,8,0.00,,---,0.00,VWS V14.00,2013-02-27 00:21:00,
2013-02-26 18:23:00,55.6,-4.8,29.76,WSW,244,0.0,11.0,8,0.00,,---,0.00,VWS V14.00,2013-02-27 00:23:00,
2013-02-26 18:24:00,55.4,-4.9,29.76,WSW,246,7.0,11.0,8,0.00,,---,0.00,VWS V14.00,2013-02-27 00:24:00,
2013-02-26 18:26:00,55.1,-7.9,29.76,SW,224,0.0,11.0,7,0.00,,---,0.00,VWS V14.00,2013-02-27 00:26:00,
2013-02-26 18:29:00,54.7,-5.5,29.78,SSW,205,6.0,11.0,8,0.00,,---,0.00,VWS V14.00,2013-02-27 00:29:00,
2013-02-26 18:30:00,54.7,-5.5,29.78,SW,229,5.0,11.0,8,0.00,,---,0.00,VWS V14.00,2013-02-27 00:30:00,
2013-02-26 18:31:00,54.5,-5.6,29.78,SW,230,7.0,8.0,8,0.00,,---,0.00,VWS V14.00,2013-02-27 00:31:00,
2013-02-26 18:34:00,54.2,-5.8,29.78,WSW,241,0.0,10.0,8,0.00,,---,0.00,VWS V14.00,2013-02-27 00:34:00,
2013-02-26 18:35:00,54.2,-5.8,29.78,WSW,241,0.0,10.0,8,0.00,,---,0.00,VWS V14.00,2013-02-27 00:35:00,
2013-02-26 18:36:00,54.1,-5.9,29.78,WSW,241,0.0,10.0,8,0.00,,---,0.00,VWS V14.00,2013-02-27 00:36:00,
2013-02-26 18:39:00,53.8,-6.2,29.78,WSW,239,0.0,10.0,8,0.00,,---,0.00,VWS V14.00,2013-02-27 00:39:00,
2013-02-26 18:40:00,53.6,-6.3,29.78,WSW,239,0.0,10.0,8,0.00,,---,0.00,VWS V14.00,2013-02-27 00:40:00,
2013-02-26 18:41:00,53.5,-6.4,29.78,WSW,239,0.0,10.0,8,0.00,,---,0.00,VWS V14.00,2013-02-27 00:41:00,
2013-02-26 18:44:00,53.1,-6.7,29.80,West,264,0.0,10.0,8,0.00,,---,0.00,VWS V14.00,2013-02-27 00:44:00,
2013-02-26 18:45:00,52.9,-6.8,29.80,West,264,0.0,10.0,8,0.00,,---,0.00,VWS V14.00,2013-02-27 00:45:00,
2013-02-26 18:46:00,52.8,-6.9,29.80,West,264,0.0,10.0,8,0.00,,---,0.00,VWS V14.00,2013-02-27 00:46:00,
2013-02-26 18:49:00,52.3,-4.8,29.80,West,264,0.0,10.0,9,0.00,,---,0.00,VWS V14.00,2013-02-27 00:49:00,
2013-02-26 18:50:00,52.3,-4.8,29.80,West,264,0.0,10.0,9,0.00,,---,0.00,VWS V14.00,2013-02-27 00:50:00,
2013-02-26 18:51:00,52.3,-4.8,29.80,West,264,0.0,10.0,9,0.00,,---,0.00,VWS V14.00,2013-02-27 00:51:00,
2013-02-26 18:55:00,52.0,-5.1,29.80,South,181,0.0,10.0,9,0.00,,---,0.00,VWS V14.00,2013-02-27 00:55:00,
2013-02-26 18:56:00,51.9,-5.2,29.80,South,182,0.0,10.0,9,0.00,,---,0.00,VWS V14.00,2013-02-27 00:56:00,
2013-02-26 19:00:00,51.6,-5.4,29.80,South,186,0.0,10.0,9,0.00,,---,0.00,VWS V14.00,2013-02-27 01:00:00,
2013-02-26 19:02:00,51.4,-5.5,29.80,South,186,0.0,0.0,9,0.00,,---,0.00,VWS V14.00,2013-02-27 01:02:00,
2013-02-26 19:05:00,51.4,-5.5,29.80,South,186,0.0,0.0,9,0.00,,---,0.00,VWS V14.00,2013-02-27 01:05:00,
2013-02-26 19:07:00,51.4,-5.5,29.80,South,186,0.0,0.0,9,0.00,,---,0.00,VWS V14.00,2013-02-27 01:07:00,
2013-02-26 19:10:00,51.4,-5.5,29.80,South,186,0.0,0.0,9,0.00,,---,0.00,VWS V14.00,2013-02-27 01:10:00,
2013-02-26 19:11:00,51.4,-5.5,29.80,South,186,0.0,0.0,9,0.00,,---,0.00,VWS V14.00,2013-02-27 01:11:00,
2013-02-26 19:12:00,51.4,-5.5,29.80,South,186,0.0,0.0,9,0.00,,---,0.00,VWS V14.00,2013-02-27 01:12:00,
2013-02-26 19:15:00,51.4,-5.5,29.77,South,186,0.0,0.0,9,0.00,,---,0.00,VWS V14.00,2013-02-27 01:15:00,
2013-02-26 19:16:00,51.4,-5.5,29.77,South,186,0.0,0.0,9,0.00,,---,0.00,VWS V14.00,2013-02-27 01:16:00,
2013-02-26 19:17:00,51.4,-5.5,29.77,South,186,0.0,0.0,9,0.00,,---,0.00,VWS V14.00,2013-02-27 01:17:00,
2013-02-26 19:20:00,51.4,-5.5,29.77,South,186,0.0,0.0,9,0.00,,---,0.00,VWS V14.00,2013-02-27 01:20:00,
2013-02-26 19:21:00,51.4,-5.5,29.77,South,186,0.0,0.0,9,0.00,,---,0.00,VWS V14.00,2013-02-27 01:21:00,
2013-02-26 19:22:00,51.4,-5.5,29.77,South,186,0.0,0.0,9,0.00,,---,0.00,VWS V14.00,2013-02-27 01:22:00,
2013-02-26 19:25:00,51.4,-5.5,29.77,South,186,0.0,0.0,9,0.00,,---,0.00,VWS V14.00,2013-02-27 01:25:00,
2013-02-26 19:26:00,51.4,-5.5,29.77,South,186,0.0,0.0,9,0.00,,---,0.00,VWS V14.00,2013-02-27 01:26:00,
2013-02-26 19:27:00,51.4,-5.5,29.77,South,189,0.0,0.0,9,0.00,,---,0.00,VWS V14.00,2013-02-27 01:27:00,
2013-02-26 19:30:00,51.4,-5.5,29.77,South,189,0.0,0.0,9,0.00,,---,0.00,VWS V14.00,2013-02-27 01:30:00,
2013-02-26 19:31:00,51.4,-5.5,29.77,South,189,0.0,0.0,9,0.00,,---,0.00,VWS V14.00,2013-02-27 01:31:00,
2013-02-26 19:32:00,48.5,-7.8,29.77,South,191,0.0,0.0,9,0.00,,---,0.00,VWS V14.00,2013-02-27 01:32:00,
2013-02-26 19:36:00,48.5,-7.8,29.77,South,191,0.0,0.0,9,0.00,,---,0.00,VWS V14.00,2013-02-27 01:36:00,
2013-02-26 19:37:00,48.5,-7.8,29.77,South,191,0.0,0.0,9,0.00,,---,0.00,VWS V14.00,2013-02-27 01:37:00,
2013-02-26 19:41:00,48.5,-7.8,29.77,South,191,0.0,0.0,9,0.00,,---,0.00,VWS V14.00,2013-02-27 01:41:00,
2013-02-26 19:42:00,48.5,-7.8,29.77,South,191,0.0,0.0,9,0.00,,---,0.00,VWS V14.00,2013-02-27 01:42:00,
2013-02-26 19:46:00,48.5,-7.8,29.79,South,191,0.0,0.0,9,0.00,,---,0.00,VWS V14.00,2013-02-27 01:46:00,
2013-02-26 19:47:00,48.5,-7.8,29.79,South,191,0.0,0.0,9,0.00,,---,0.00,VWS V14.00,2013-02-27 01:47:00,
2013-02-26 19:51:00,48.5,-7.8,29.79,South,191,0.0,0.0,9,0.00,,---,0.00,VWS V14.00,2013-02-27 01:51:00,
2013-02-26 19:52:00,48.5,-7.8,29.79,South,191,0.0,0.0,9,0.00,,---,0.00,VWS V14.00,2013-02-27 01:52:00,
2013-02-26 19:56:00,44.2,-11.1,29.79,South,191,0.0,0.0,9,0.00,,---,0.00,VWS V14.00,2013-02-27 01:56:00,
2013-02-26 19:57:00,44.2,-11.1,29.79,South,191,0.0,0.0,9,0.00,,---,0.00,VWS V14.00,2013-02-27 01:57:00,
2013-02-26 20:01:00,43.6,-11.5,29.82,South,191,0.0,0.0,9,0.00,,---,0.00,VWS V14.00,2013-02-27 02:01:00,
2013-02-26 20:02:00,43.6,-11.5,29.82,South,191,0.0,0.0,9,0.00,,---,0.00,VWS V14.00,2013-02-27 02:02:00,
2013-02-26 20:06:00,42.2,-12.6,29.82,South,191,0.0,0.0,9,0.00,,---,0.00,VWS V14.00,2013-02-27 02:06:00,
2013-02-26 20:07:00,42.2,-12.6,29.82,South,191,0.0,0.0,9,0.00,,---,0.00,VWS V14.00,2013-02-27 02:07:00,
2013-02-26 20:11:00,41.2,-5.9,29.82,South,191,0.0,0.0,13,0.00,,---,0.00,VWS V14.00,2013-02-27 02:11:00,
2013-02-26 20:12:00,41.1,-6.0,29.82,South,191,0.0,0.0,13,0.00,,---,0.00,VWS V14.00,2013-02-27 02:12:00,
2013-02-26 20:13:00,40.9,-6.2,29.82,South,191,0.0,0.0,13,0.00,,---,0.00,VWS V14.00,2013-02-27 02:13:00,
2013-02-26 20:17:00,39.9,-5.4,29.81,South,191,0.0,0.0,14,0.00,,---,0.00,VWS V14.00,2013-02-27 02:17:00,
2013-02-26 20:19:00,39.1,-6.1,29.81,South,191,0.0,0.0,14,0.00,,---,0.00,VWS V14.00,2013-02-27 02:19:00,
2013-02-26 20:23:00,38.0,-6.9,29.81,South,191,0.0,0.0,14,0.00,,---,0.00,VWS V14.00,2013-02-27 02:23:00,
2013-02-26 20:24:00,37.9,-7.0,29.81,South,191,0.0,0.0,14,0.00,,---,0.00,VWS V14.00,2013-02-27 02:24:00,
2013-02-26 20:28:00,37.6,-5.9,29.81,South,191,0.0,0.0,15,0.00,,---,0.00,VWS V14.00,2013-02-27 02:28:00,
2013-02-26 20:29:00,37.6,-5.9,29.82,South,191,0.0,0.0,15,0.00,,---,0.00,VWS V14.00,2013-02-27 02:29:00,
2013-02-26 20:30:00,37.6,-5.9,29.82,South,191,0.0,0.0,15,0.00,,---,0.00,VWS V14.00,2013-02-27 02:30:00,
2013-02-26 20:33:00,37.3,-6.1,29.82,South,191,0.0,0.0,15,0.00,,---,0.00,VWS V14.00,2013-02-27 02:33:00,
2013-02-26 20:34:00,37.3,-6.1,29.82,South,191,0.0,0.0,15,0.00,,---,0.00,VWS V14.00,2013-02-27 02:34:00,
2013-02-26 20:35:00,37.2,-6.2,29.82,South,191,0.0,0.0,15,0.00,,---,0.00,VWS V14.00,2013-02-27 02:35:00,
2013-02-26 20:38:00,36.9,-6.4,29.82,South,191,0.0,0.0,15,0.00,,---,0.00,VWS V14.00,2013-02-27 02:38:00,
2013-02-26 20:39:00,36.9,-6.4,29.82,South,191,0.0,0.0,15,0.00,,---,0.00,VWS V14.00,2013-02-27 02:39:00,
2013-02-26 20:40:00,36.8,-6.5,29.82,South,191,0.0,0.0,15,0.00,,---,0.00,VWS V14.00,2013-02-27 02:40:00,
2013-02-26 20:43:00,36.6,-5.3,29.82,South,191,0.0,0.0,16,0.00,,---,0.00,VWS V14.00,2013-02-27 02:43:00,
2013-02-26 20:44:00,36.6,-5.3,29.84,South,191,0.0,0.0,16,0.00,,---,0.00,VWS V14.00,2013-02-27 02:44:00,
2013-02-26 20:45:00,36.5,-5.4,29.84,South,191,0.0,0.0,16,0.00,,---,0.00,VWS V14.00,2013-02-27 02:45:00,
2013-02-26 20:49:00,36.0,-5.8,29.84,South,191,0.0,0.0,16,0.00,,---,0.00,VWS V14.00,2013-02-27 02:49:00,
2013-02-26 20:50:00,35.9,-5.9,29.84,South,191,0.0,0.0,16,0.00,,---,0.00,VWS V14.00,2013-02-27 02:50:00,
2013-02-26 20:54:00,35.5,-6.2,29.84,South,191,0.0,0.0,16,0.00,,---,0.00,VWS V14.00,2013-02-27 02:54:00,
2013-02-26 20:55:00,35.3,-6.4,29.84,South,191,0.0,0.0,16,0.00,,---,0.00,VWS V14.00,2013-02-27 02:55:00,
2013-02-26 20:59:00,35.0,-5.4,29.86,South,191,0.0,0.0,17,0.00,,---,0.00,VWS V14.00,2013-02-27 02:59:00,
2013-02-26 21:00:00,34.9,-5.5,29.86,South,191,0.0,0.0,17,0.00,,---,0.00,VWS V14.00,2013-02-27 03:00:00,
2013-02-26 21:01:00,34.7,-5.6,29.86,South,191,0.0,0.0,17,0.00,,---,0.00,VWS V14.00,2013-02-27 03:01:00,
2013-02-26 21:04:00,34.3,-4.8,29.86,South,191,0.0,0.0,18,0.00,,---,0.00,VWS V14.00,2013-02-27 03:04:00,
2013-02-26 21:05:00,34.1,-5.0,29.86,South,191,0.0,0.0,18,0.00,,---,0.00,VWS V14.00,2013-02-27 03:05:00,
2013-02-26 21:06:00,33.8,-6.4,29.86,South,191,0.0,0.0,17,0.00,,---,0.00,VWS V14.00,2013-02-27 03:06:00,
2013-02-26 21:09:00,33.7,-6.5,29.86,South,191,0.0,0.0,17,0.00,,---,0.00,VWS V14.00,2013-02-27 03:09:00,
2013-02-26 21:10:00,33.5,-6.6,29.86,South,191,0.0,0.0,17,0.00,,---,0.00,VWS V14.00,2013-02-27 03:10:00,
2013-02-26 21:11:00,33.5,-6.6,29.86,South,191,0.0,0.0,17,0.00,,---,0.00,VWS V14.00,2013-02-27 03:11:00,
2013-02-26 21:14:00,33.2,-6.9,29.83,South,191,0.0,0.0,17,0.00,,---,0.00,VWS V14.00,2013-02-27 03:14:00,
2013-02-26 21:15:00,33.2,-5.7,29.83,South,191,0.0,0.0,18,0.00,,---,0.00,VWS V14.00,2013-02-27 03:15:00,
2013-02-26 21:16:00,33.1,-5.8,29.83,South,191,0.0,0.0,18,0.00,,---,0.00,VWS V14.00,2013-02-27 03:16:00,
2013-02-26 21:19:00,32.9,-5.9,29.83,South,191,0.0,0.0,18,0.00,,---,0.00,VWS V14.00,2013-02-27 03:19:00,
2013-02-26 21:20:00,32.8,-6.0,29.83,South,191,0.0,0.0,18,0.00,,---,0.00,VWS V14.00,2013-02-27 03:20:00,
2013-02-26 21:21:00,32.8,-4.9,29.83,South,191,0.0,0.0,19,0.00,,---,0.00,VWS V14.00,2013-02-27 03:21:00,
2013-02-26 21:25:00,32.8,-4.9,29.83,South,191,0.0,0.0,19,0.00,,---,0.00,VWS V14.00,2013-02-27 03:25:00,
2013-02-26 21:26:00,32.7,-6.1,29.83,South,191,0.0,0.0,18,0.00,,---,0.00,VWS V14.00,2013-02-27 03:26:00,
2013-02-26 21:30:00,32.5,-5.2,29.83,South,191,0.0,0.0,19,0.00,,---,0.00,VWS V14.00,2013-02-27 03:30:00,
2013-02-26 21:31:00,32.4,-5.2,29.83,South,191,0.0,0.0,19,0.00,,---,0.00,VWS V14.00,2013-02-27 03:31:00,
2013-02-26 21:32:00,32.4,-5.2,29.83,South,191,0.0,0.0,19,0.00,,---,0.00,VWS V14.00,2013-02-27 03:32:00,
2013-02-26 21:35:00,32.2,-5.4,29.83,South,191,0.0,0.0,19,0.00,,---,0.00,VWS V14.00,2013-02-27 03:35:00,
2013-02-26 21:36:00,32.2,-5.4,29.83,South,191,0.0,0.0,19,0.00,,---,0.00,VWS V14.00,2013-02-27 03:36:00,
2013-02-26 21:37:00,32.1,-5.5,29.83,South,191,0.0,0.0,19,0.00,,---,0.00,VWS V14.00,2013-02-27 03:37:00,
2013-02-26 21:41:00,32.1,-4.4,29.83,South,191,0.0,0.0,20,0.00,,---,0.00,VWS V14.00,2013-02-27 03:41:00,
2013-02-26 21:42:00,32.1,-5.5,29.83,South,191,0.0,0.0,19,0.00,,---,0.00,VWS V14.00,2013-02-27 03:42:00,
2013-02-26 21:46:00,31.8,-4.7,29.84,South,191,0.0,0.0,20,0.00,,---,0.00,VWS V14.00,2013-02-27 03:46:00,
2013-02-26 21:47:00,31.8,-4.7,29.84,South,191,0.0,0.0,20,0.00,,---,0.00,VWS V14.00,2013-02-27 03:47:00,
2013-02-26 21:51:00,31.6,-4.9,29.84,South,191,0.0,0.0,20,0.00,,---,0.00,VWS V14.00,2013-02-27 03:51:00,
2013-02-26 21:52:00,31.6,-4.9,29.84,South,191,0.0,0.0,20,0.00,,---,0.00,VWS V14.00,2013-02-27 03:52:00,
2013-02-26 21:53:00,31.6,-4.9,29.84,South,191,0.0,0.0,20,0.00,,---,0.00,VWS V14.00,2013-02-27 03:53:00,
2013-02-26 21:56:00,31.3,-6.2,29.84,South,191,0.0,0.0,19,0.00,,---,0.00,VWS V14.00,2013-02-27 03:56:00,
2013-02-26 21:57:00,31.3,-5.1,29.84,South,191,0.0,0.0,20,0.00,,---,0.00,VWS V14.00,2013-02-27 03:57:00,
2013-02-26 21:58:00,31.2,-6.2,29.84,South,191,0.0,0.0,19,0.00,,---,0.00,VWS V14.00,2013-02-27 03:58:00,
2013-02-26 22:01:00,31.0,-6.4,29.86,South,191,0.0,0.0,19,0.00,,---,0.00,VWS V14.00,2013-02-27 04:01:00,
2013-02-26 22:02:00,31.0,-6.4,29.86,South,191,0.0,0.0,19,0.00,,---,0.00,VWS V14.00,2013-02-27 04:02:00,
2013-02-26 22:03:00,31.0,-4.3,29.86,South,191,0.0,0.0,21,0.00,,---,0.00,VWS V14.00,2013-02-27 04:03:00,
2013-02-26 22:06:00,31.2,-4.2,29.86,South,191,0.0,0.0,21,0.00,,---,0.00,VWS V14.00,2013-02-27 04:06:00,
2013-02-26 22:07:00,31.2,-4.2,29.86,South,191,0.0,0.0,21,0.00,,---,0.00,VWS V14.00,2013-02-27 04:07:00,
2013-02-26 22:08:00,31.0,-4.3,29.86,South,191,0.0,0.0,21,0.00,,---,0.00,VWS V14.00,2013-02-27 04:08:00,
2013-02-26 22:11:00,31.0,-4.3,29.86,South,191,0.0,0.0,21,0.00,,---,0.00,VWS V14.00,2013-02-27 04:11:00,
2013-02-26 22:12:00,31.0,-4.3,29.86,South,191,0.0,0.0,21,0.00,,---,0.00,VWS V14.00,2013-02-27 04:12:00,
2013-02-26 22:13:00,31.2,-5.2,29.86,South,191,0.0,0.0,20,0.00,,---,0.00,VWS V14.00,2013-02-27 04:13:00,
2013-02-26 22:14:00,31.0,-5.4,29.84,South,191,0.0,0.0,20,0.00,,---,0.00,VWS V14.00,2013-02-27 04:14:00,
2013-02-26 22:16:00,31.0,-5.4,29.84,South,191,0.0,0.0,20,0.00,,---,0.00,VWS V14.00,2013-02-27 04:16:00,
2013-02-26 22:17:00,31.0,-5.4,29.84,South,191,0.0,0.0,20,0.00,,---,0.00,VWS V14.00,2013-02-27 04:17:00,